createdAt,value
2018-08-12T00:02:05.356Z,7.83
2018-08-12T00:04:34.441Z,8.03
2018-08-12T00:07:03.292Z,9.00
2018-08-12T00:09:31.758Z,6.73
2018-08-12T00:12:00.217Z,8.87
2018-08-12T00:14:28.733Z,9.47
2018-08-12T00:16:57.235Z,14.17
2018-08-12T00:19:25.744Z,8.67
2018-08-12T00:21:54.227Z,12.13
2018-08-12T00:24:22.708Z,8.70
2018-08-12T00:26:51.200Z,8.73
2018-08-12T00:29:19.711Z,10.50
2018-08-12T00:31:48.156Z,15.33
2018-08-12T00:34:16.652Z,7.37
2018-08-12T00:36:45.185Z,8.73
2018-08-12T00:39:14.025Z,12.23
2018-08-12T00:41:42.453Z,9.73
2018-08-12T00:44:11.010Z,9.37
2018-08-12T00:46:39.477Z,10.73
2018-08-12T00:49:07.984Z,9.00
2018-08-12T00:51:36.441Z,9.33
2018-08-12T00:54:05.039Z,11.53
2018-08-12T00:56:33.496Z,9.33
2018-08-12T00:59:02.981Z,6.40
2018-08-12T01:01:31.468Z,7.90
2018-08-12T01:03:59.998Z,17.03
2018-08-12T01:06:28.508Z,10.10
2018-08-12T01:08:57.039Z,7.40
2018-08-12T01:11:25.511Z,8.87
2018-08-12T01:13:54.025Z,7.70
2018-08-12T01:16:22.489Z,5.33
2018-08-12T01:18:50.975Z,6.87
2018-08-12T01:21:20.365Z,6.80
2018-08-12T01:23:48.824Z,4.70
2018-08-12T01:26:17.315Z,5.80
2018-08-12T01:28:45.808Z,8.80
2018-08-12T01:31:14.284Z,4.87
2018-08-12T01:33:42.755Z,5.73
2018-08-12T01:36:11.227Z,6.10
2018-08-12T01:38:39.713Z,5.90
2018-08-12T01:41:08.856Z,3.87
2018-08-12T01:43:37.351Z,6.47
2018-08-12T01:46:05.817Z,9.87
2018-08-12T01:48:34.281Z,8.17
2018-08-12T01:51:04.116Z,5.20
2018-08-12T01:53:32.614Z,8.50
2018-08-12T01:56:01.096Z,4.60
2018-08-12T01:58:29.599Z,3.67
2018-08-12T02:00:58.087Z,5.37
2018-08-12T02:03:26.596Z,6.40
2018-08-12T02:05:55.076Z,12.10
2018-08-12T02:08:23.574Z,9.97
2018-08-12T02:10:52.749Z,6.00
2018-08-12T02:13:22.180Z,6.47
2018-08-12T02:15:50.681Z,7.60
2018-08-12T02:18:19.147Z,9.30
2018-08-12T02:20:47.607Z,8.37
2018-08-12T02:23:16.102Z,5.33
2018-08-12T02:25:44.584Z,4.70
2018-08-12T02:28:13.020Z,4.83
2018-08-12T02:30:41.580Z,4.70
2018-08-12T02:33:10.053Z,7.33
2018-08-12T02:35:38.535Z,5.10
2018-08-12T02:38:06.986Z,6.07
2018-08-12T02:40:35.509Z,5.80
2018-08-12T02:43:03.988Z,4.93
2018-08-12T02:45:32.519Z,5.03
2018-08-12T02:48:00.982Z,5.97
2018-08-12T02:50:29.437Z,6.37
2018-08-12T02:52:58.059Z,8.57
2018-08-12T02:55:26.567Z,7.07
2018-08-12T02:57:55.031Z,6.33
2018-08-12T03:00:23.511Z,8.33
2018-08-12T03:02:53.685Z,5.87
2018-08-12T03:05:22.311Z,4.70
2018-08-12T03:07:50.780Z,3.27
2018-08-12T03:10:19.296Z,5.00
2018-08-12T03:12:47.752Z,4.40
2018-08-12T03:15:16.257Z,3.47
2018-08-12T03:17:44.689Z,6.20
2018-08-12T03:20:13.157Z,5.43
2018-08-12T03:22:41.612Z,4.23
2018-08-12T03:25:11.216Z,5.07
2018-08-12T03:27:40.104Z,3.60
2018-08-12T03:30:09.991Z,9.00
2018-08-12T03:32:38.436Z,6.20
2018-08-12T03:35:07.088Z,7.77
2018-08-12T03:37:35.539Z,6.10
2018-08-12T03:40:04.992Z,11.53
2018-08-12T03:42:33.464Z,10.57
2018-08-12T03:45:01.964Z,13.70
2018-08-12T03:47:30.421Z,9.40
2018-08-12T03:49:58.956Z,11.07
2018-08-12T03:52:27.443Z,9.23
2018-08-12T03:54:55.983Z,13.87
2018-08-12T03:57:24.452Z,9.73
2018-08-12T03:59:52.904Z,20.93
2018-08-12T04:02:21.454Z,12.10
2018-08-12T04:04:49.818Z,9.33
2018-08-12T04:07:18.340Z,9.77
2018-08-12T04:09:46.792Z,6.83
2018-08-12T04:12:15.276Z,8.57
2018-08-12T04:14:43.754Z,7.93
2018-08-12T04:17:12.212Z,8.97
2018-08-12T04:19:40.725Z,7.77
2018-08-12T04:22:09.196Z,8.67
2018-08-12T04:24:37.632Z,7.73
2018-08-12T04:27:06.110Z,8.73
2018-08-12T04:29:34.568Z,7.07
2018-08-12T04:32:03.047Z,10.40
2018-08-12T04:34:31.535Z,3.87
2018-08-12T04:37:00.018Z,9.83
2018-08-12T04:39:28.465Z,6.13
2018-08-12T04:41:56.975Z,10.57
2018-08-12T04:44:25.467Z,3.93
2018-08-12T04:46:53.966Z,6.93
2018-08-12T04:49:22.460Z,6.57
2018-08-12T04:51:50.956Z,4.60
2018-08-12T04:54:19.448Z,5.60
2018-08-12T04:56:47.948Z,4.67
2018-08-12T04:59:16.440Z,7.37
2018-08-12T05:01:44.908Z,4.60
2018-08-12T05:04:13.396Z,5.70
2018-08-12T05:06:41.924Z,8.40
2018-08-12T05:09:11.405Z,7.30
2018-08-12T05:11:40.357Z,6.03
2018-08-12T05:14:08.914Z,6.57
2018-08-12T05:16:37.418Z,6.10
2018-08-12T05:19:05.912Z,6.23
2018-08-12T05:21:34.427Z,8.13
2018-08-12T05:24:02.941Z,4.83
2018-08-12T05:26:31.457Z,3.77
2018-08-12T05:28:59.922Z,6.20
2018-08-12T05:31:28.408Z,4.63
2018-08-12T05:33:56.928Z,4.27
2018-08-12T05:36:25.408Z,4.87
2018-08-12T05:38:53.891Z,5.33
2018-08-12T05:41:22.343Z,5.47
2018-08-12T05:43:50.825Z,5.93
2018-08-12T05:46:19.481Z,8.20
2018-08-12T05:48:47.933Z,4.20
2018-08-12T05:51:16.486Z,5.00
2018-08-12T05:53:44.882Z,5.40
2018-08-12T05:56:13.340Z,5.00
2018-08-12T05:58:41.839Z,6.93
2018-08-12T06:01:10.321Z,4.83
2018-08-12T06:03:39.643Z,5.83
2018-08-12T06:06:08.045Z,7.37
2018-08-12T06:08:36.541Z,5.37
2018-08-12T06:11:05.014Z,7.83
2018-08-12T06:13:33.580Z,8.03
2018-08-12T06:16:02.044Z,5.50
2018-08-12T06:18:30.559Z,5.53
2018-08-12T06:20:59.110Z,6.97
2018-08-12T06:23:27.676Z,5.13
2018-08-12T06:25:56.166Z,6.17
2018-08-12T06:28:24.772Z,4.13
2018-08-12T06:30:53.264Z,9.40
2018-08-12T06:33:21.768Z,6.10
2018-08-12T06:35:50.208Z,5.23
2018-08-12T06:38:18.732Z,6.53
2018-08-12T06:40:47.201Z,5.83
2018-08-12T06:43:15.772Z,7.37
2018-08-12T06:45:44.240Z,6.33
2018-08-12T06:48:12.749Z,6.00
2018-08-12T06:50:41.284Z,5.73
2018-08-12T06:53:09.754Z,5.67
2018-08-12T06:55:38.229Z,8.03
2018-08-12T06:58:06.688Z,3.97
2018-08-12T07:00:35.210Z,8.30
2018-08-12T07:03:03.689Z,8.50
2018-08-12T07:05:32.136Z,6.93
2018-08-12T07:08:00.667Z,5.63
2018-08-12T07:10:29.130Z,7.40
2018-08-12T07:12:57.631Z,11.37
2018-08-12T07:15:26.137Z,9.13
2018-08-12T07:17:54.663Z,10.17
2018-08-12T07:20:23.136Z,10.83
2018-08-12T07:22:51.686Z,9.67
2018-08-12T07:25:20.159Z,9.47
2018-08-12T07:27:48.763Z,12.47
2018-08-12T07:30:17.227Z,9.53
2018-08-12T07:32:45.791Z,9.90
2018-08-12T07:35:14.218Z,12.63
2018-08-12T07:37:42.844Z,11.97
2018-08-12T07:40:13.663Z,11.97
2018-08-12T07:42:42.228Z,13.20
2018-08-12T07:45:12.077Z,10.90
2018-08-12T07:47:41.134Z,15.03
2018-08-12T07:50:10.363Z,12.87
2018-08-12T07:52:39.476Z,14.83
2018-08-12T07:55:08.787Z,12.20
2018-08-12T07:58:12.528Z,11.90
2018-08-12T08:00:41.020Z,8.80
2018-08-12T08:03:09.623Z,13.97
2018-08-12T08:05:38.091Z,11.97
2018-08-12T08:08:06.670Z,13.83
2018-08-12T08:10:35.137Z,9.77
2018-08-12T08:13:03.636Z,11.33
2018-08-12T08:15:32.105Z,10.03
2018-08-12T08:18:00.613Z,7.63
2018-08-12T08:20:29.114Z,8.90
2018-08-12T08:22:57.643Z,7.83
2018-08-12T08:25:26.132Z,8.20
2018-08-12T08:27:54.553Z,9.63
2018-08-12T08:30:23.020Z,12.90
2018-08-12T08:32:51.527Z,8.53
2018-08-12T08:35:20.037Z,9.17
2018-08-12T08:37:48.505Z,9.33
2018-08-12T08:40:17.470Z,8.43
2018-08-12T08:42:46.242Z,7.00
2018-08-12T08:45:16.272Z,6.60
2018-08-12T08:47:46.155Z,9.43
2018-08-12T08:50:14.948Z,37.03
2018-08-12T08:52:43.828Z,25.47
2018-08-12T08:55:13.479Z,8.90
2018-08-12T08:57:42.042Z,17.83
2018-08-12T09:00:12.189Z,37.87
2018-08-12T09:02:41.256Z,16.33
2018-08-12T09:05:11.273Z,5.90
2018-08-12T09:07:40.549Z,43.50
2018-08-12T09:10:10.271Z,32.90
2018-08-12T09:12:39.174Z,36.30
2018-08-12T09:15:08.992Z,39.23
2018-08-12T09:17:37.753Z,34.57
2018-08-12T09:20:07.452Z,8.67
2018-08-12T09:22:36.236Z,16.10
2018-08-12T09:25:05.465Z,17.37
2018-08-12T09:27:34.032Z,12.33
2018-08-12T09:30:02.669Z,9.00
2018-08-12T09:32:31.237Z,9.87
2018-08-12T09:34:59.697Z,8.67
2018-08-12T09:37:28.177Z,7.90
2018-08-12T09:39:56.712Z,4.90
2018-08-12T09:42:25.296Z,9.87
2018-08-12T09:44:53.899Z,6.87
2018-08-12T09:47:22.458Z,6.87
2018-08-12T09:49:50.933Z,6.07
2018-08-12T09:52:19.409Z,7.30
2018-08-12T09:54:47.911Z,6.57
2018-08-12T09:57:16.374Z,5.37
2018-08-12T09:59:44.871Z,4.23
2018-08-12T10:02:13.324Z,4.07
2018-08-12T10:04:41.790Z,5.53
2018-08-12T10:07:10.298Z,3.97
2018-08-12T10:09:38.800Z,6.17
2018-08-12T10:12:07.469Z,4.00
2018-08-12T10:14:36.088Z,8.80
2018-08-12T10:17:04.698Z,3.47
2018-08-12T10:19:33.271Z,4.17
2018-08-12T10:22:01.825Z,2.70
2018-08-12T10:24:30.400Z,4.23
2018-08-12T10:26:58.947Z,6.03
2018-08-12T10:29:27.697Z,3.87
2018-08-12T10:31:56.215Z,5.87
2018-08-12T10:34:24.724Z,7.50
2018-08-12T10:36:53.280Z,28.60
2018-08-12T10:39:21.781Z,37.40
2018-08-12T10:41:50.352Z,68.03
2018-08-12T10:44:19.006Z,76.67
2018-08-12T10:46:47.525Z,31.30
2018-08-12T10:49:16.328Z,43.93
2018-08-12T10:51:44.918Z,28.00
2018-08-12T10:54:13.765Z,18.63
2018-08-12T10:56:42.501Z,5.97
2018-08-12T10:59:11.080Z,6.80
2018-08-12T11:01:39.640Z,8.63
2018-08-12T11:04:08.404Z,6.67
2018-08-12T11:06:36.976Z,4.70
2018-08-12T11:09:06.154Z,5.43
2018-08-12T11:11:34.694Z,5.87
2018-08-12T11:14:03.290Z,9.63
2018-08-12T11:16:31.848Z,6.93
2018-08-12T11:19:00.467Z,2.33
2018-08-12T11:21:29.004Z,4.70
2018-08-12T11:23:57.504Z,7.87
2018-08-12T11:26:26.258Z,4.23
2018-08-12T11:28:54.769Z,2.57
2018-08-12T11:31:23.273Z,16.23
2018-08-12T11:33:51.830Z,4.20
2018-08-12T11:36:20.485Z,11.93
2018-08-12T11:38:48.998Z,14.37
2018-08-12T11:41:17.608Z,6.17
2018-08-12T11:43:46.735Z,9.07
2018-08-12T11:46:15.238Z,10.70
2018-08-12T11:48:43.729Z,10.93
2018-08-12T11:51:12.220Z,11.43
2018-08-12T11:53:40.857Z,10.13
2018-08-12T11:56:09.402Z,7.73
2018-08-12T11:58:37.965Z,6.80
2018-08-12T12:01:06.464Z,7.30
2018-08-12T12:03:35.154Z,9.13
2018-08-12T12:06:03.774Z,3.63
2018-08-12T12:08:32.365Z,6.03
2018-08-12T12:11:01.041Z,2.80
2018-08-12T12:13:29.560Z,6.97
2018-08-12T12:15:58.192Z,2.97
2018-08-12T12:18:26.752Z,4.37
2018-08-12T12:20:55.440Z,5.20
2018-08-12T12:23:23.989Z,4.03
2018-08-12T12:25:52.619Z,4.83
2018-08-12T12:28:21.173Z,3.57
2018-08-12T12:30:49.807Z,3.27
2018-08-12T12:33:18.426Z,4.97
2018-08-12T12:35:47.891Z,3.30
2018-08-12T12:38:16.463Z,5.97
2018-08-12T12:40:45.073Z,6.80
2018-08-12T12:43:13.631Z,4.50
2018-08-12T12:45:42.226Z,47.60
2018-08-12T12:48:10.723Z,8.17
2018-08-12T12:50:39.473Z,28.57
2018-08-12T12:53:07.862Z,11.63
2018-08-12T12:55:36.427Z,24.13
2018-08-12T12:58:05.010Z,17.63
2018-08-12T13:00:33.492Z,28.00
2018-08-12T13:03:01.968Z,14.37
2018-08-12T13:05:30.456Z,26.53
2018-08-12T13:07:59.012Z,33.93
2018-08-12T13:10:27.710Z,64.57
2018-08-12T13:12:56.251Z,31.23
2018-08-12T13:15:24.888Z,62.87
2018-08-12T13:17:53.416Z,24.77
2018-08-12T13:20:22.057Z,19.17
2018-08-12T13:22:50.838Z,6.83
2018-08-12T13:25:20.882Z,36.73
2018-08-12T13:27:49.375Z,14.50
2018-08-12T13:30:18.879Z,18.60
2018-08-12T13:32:48.153Z,29.27
2018-08-12T13:35:16.642Z,9.43
2018-08-12T13:37:45.165Z,5.00
2018-08-12T13:40:14.792Z,6.28
2018-08-12T13:42:43.763Z,5.57
2018-08-12T13:45:12.829Z,7.83
2018-08-12T13:47:42.623Z,8.67
2018-08-12T13:50:14.136Z,8.47
2018-08-12T13:52:42.745Z,6.57
2018-08-12T13:55:11.225Z,4.57
2018-08-12T13:57:39.709Z,5.07
2018-08-12T14:00:09.370Z,4.40
2018-08-12T14:02:37.868Z,5.53
2018-08-12T14:05:06.386Z,3.10
2018-08-12T14:07:34.868Z,9.13
2018-08-12T14:10:03.600Z,6.25
2018-08-12T14:12:32.110Z,3.45
2018-08-12T14:15:00.610Z,4.92
2018-08-12T14:17:29.109Z,7.53
2018-08-12T14:19:57.587Z,9.60
2018-08-12T14:22:26.056Z,7.78
2018-08-12T14:24:54.815Z,19.12
2018-08-12T14:27:23.300Z,12.60
2018-08-12T14:29:51.801Z,7.10
2018-08-12T14:32:20.318Z,46.02
2018-08-12T14:34:48.824Z,14.87
2018-08-12T14:37:17.376Z,24.40
2018-08-12T14:39:45.853Z,33.33
2018-08-12T14:42:14.304Z,8.38
2018-08-12T14:44:42.917Z,18.55
2018-08-12T14:47:11.382Z,4.40
2018-08-12T14:49:39.819Z,22.13
2018-08-12T14:52:08.312Z,23.12
2018-08-12T14:54:36.896Z,41.20
2018-08-12T14:57:05.397Z,22.82
2018-08-12T14:59:34.136Z,9.95
2018-08-12T15:02:02.765Z,12.80
2018-08-12T15:04:31.216Z,4.12
2018-08-12T15:06:59.681Z,8.15
2018-08-12T15:09:28.118Z,7.75
2018-08-12T15:11:56.592Z,13.15
2018-08-12T15:14:25.049Z,3.50
2018-08-12T15:16:53.529Z,9.40
2018-08-12T15:19:21.993Z,12.35
2018-08-12T15:21:50.528Z,14.07
2018-08-12T15:24:19.225Z,13.55
2018-08-12T15:26:47.719Z,23.70
2018-08-12T15:29:16.425Z,14.15
2018-08-12T15:31:44.981Z,17.05
2018-08-12T15:34:13.464Z,20.50
2018-08-12T15:36:42.043Z,20.77
2018-08-12T15:39:12.000Z,12.07
2018-08-12T15:41:41.957Z,19.75
2018-08-12T15:44:10.590Z,22.85
2018-08-12T15:46:39.585Z,5.78
2018-08-12T15:49:08.080Z,10.43
2018-08-12T15:51:36.558Z,11.20
2018-08-12T15:54:05.206Z,29.42
2018-08-12T15:56:34.052Z,47.62
2018-08-12T15:59:02.572Z,18.35
2018-08-12T16:01:31.040Z,10.28
2018-08-12T16:04:00.212Z,18.98
2018-08-12T16:06:28.822Z,6.53
2018-08-12T16:08:58.377Z,29.80
2018-08-12T16:11:26.824Z,9.53
2018-08-12T16:13:55.549Z,28.12
2018-08-12T16:16:24.204Z,28.50
2018-08-12T16:18:52.720Z,30.43
2018-08-12T16:21:21.240Z,15.43
2018-08-12T16:23:49.676Z,73.92
2018-08-12T16:26:18.145Z,7.08
2018-08-12T16:28:46.717Z,8.20
2018-08-12T16:31:15.180Z,25.40
2018-08-12T16:33:43.666Z,23.42
2018-08-12T16:36:12.138Z,22.93
2018-08-12T16:38:40.712Z,9.23
2018-08-12T16:41:09.190Z,28.57
2018-08-12T16:43:37.728Z,16.20
2018-08-12T16:46:06.294Z,18.52
2018-08-12T16:48:34.776Z,35.70
2018-08-12T16:51:03.261Z,18.80
2018-08-12T16:53:31.773Z,12.93
2018-08-12T16:56:00.248Z,24.47
2018-08-12T16:58:28.777Z,30.05
2018-08-12T17:00:57.359Z,44.13
2018-08-12T17:03:25.844Z,39.15
2018-08-12T17:05:54.383Z,47.27
2018-08-12T17:08:22.914Z,31.75
2018-08-12T17:10:52.092Z,15.55
2018-08-12T17:13:20.670Z,22.10
2018-08-12T17:15:49.159Z,15.50
2018-08-12T17:18:17.641Z,22.20
2018-08-12T17:20:46.113Z,15.32
2018-08-12T17:23:14.608Z,26.85
2018-08-12T17:25:43.210Z,6.08
2018-08-12T17:28:11.620Z,8.60
2018-08-12T17:30:40.887Z,7.58
2018-08-12T17:33:09.688Z,10.75
2018-08-12T17:35:38.768Z,5.83
2018-08-12T17:38:07.240Z,14.70
2018-08-12T17:40:35.767Z,6.45
2018-08-12T17:43:04.303Z,7.70
2018-08-12T17:45:32.792Z,27.55
2018-08-12T17:48:01.348Z,16.25
2018-08-12T17:50:29.839Z,24.98
2018-08-12T17:52:58.312Z,6.15
2018-08-12T17:55:26.801Z,13.50
2018-08-12T17:57:55.325Z,9.60
2018-08-12T18:00:23.804Z,6.50
2018-08-12T18:02:52.287Z,7.00
2018-08-12T18:05:20.739Z,7.20
2018-08-12T18:07:49.216Z,13.40
2018-08-12T18:10:17.675Z,6.62
2018-08-12T18:12:46.247Z,7.03
2018-08-12T18:15:14.720Z,6.78
2018-08-12T18:17:43.239Z,8.15
2018-08-12T18:20:11.804Z,7.90
2018-08-12T18:22:40.280Z,6.37
2018-08-12T18:25:10.100Z,7.60
2018-08-12T18:27:38.587Z,6.60
2018-08-12T18:30:09.116Z,3.10
2018-08-12T18:32:37.644Z,10.58
2018-08-12T18:35:06.574Z,6.70
2018-08-12T18:37:35.176Z,6.78
2018-08-12T18:40:04.513Z,9.10
2018-08-12T18:42:32.997Z,3.90
2018-08-12T18:45:01.464Z,12.13
2018-08-12T18:47:29.935Z,10.80
2018-08-12T18:49:58.450Z,5.95
2018-08-12T18:52:26.970Z,5.80
2018-08-12T18:54:55.445Z,10.53
2018-08-12T18:57:24.895Z,5.87
2018-08-12T18:59:53.561Z,6.30
2018-08-12T19:02:22.133Z,8.23
2018-08-12T19:04:50.612Z,5.08
2018-08-12T19:07:19.181Z,10.38
2018-08-12T19:09:47.674Z,6.67
2018-08-12T19:12:16.123Z,5.25
2018-08-12T19:14:44.625Z,9.33
2018-08-12T19:17:13.377Z,6.67
2018-08-12T19:19:41.936Z,5.25
2018-08-12T19:22:10.415Z,4.40
2018-08-12T19:24:38.931Z,7.10
2018-08-12T19:27:07.443Z,4.25
2018-08-12T19:29:36.011Z,6.37
2018-08-12T19:32:04.528Z,8.43
2018-08-12T19:34:33.160Z,9.05
2018-08-12T19:37:01.646Z,6.10
2018-08-12T19:39:30.124Z,4.50
2018-08-12T19:41:58.588Z,8.20
2018-08-12T19:44:27.174Z,10.23
2018-08-12T19:46:55.637Z,10.10
2018-08-12T19:49:24.139Z,4.42
2018-08-12T19:51:52.620Z,8.33
2018-08-12T19:54:21.120Z,10.35
2018-08-12T19:56:49.683Z,10.68
2018-08-12T19:59:18.121Z,8.83
2018-08-12T20:01:46.575Z,9.53
2018-08-12T20:04:15.058Z,8.70
2018-08-12T20:06:43.539Z,8.20
2018-08-12T20:09:12.560Z,9.68
2018-08-12T20:11:40.985Z,8.73
2018-08-12T20:17:02.165Z,8.83
2018-08-12T20:19:30.791Z,7.65
2018-08-12T20:21:59.311Z,9.78
2018-08-12T20:24:27.841Z,4.80
2018-08-12T20:26:56.429Z,5.60
2018-08-12T20:29:24.953Z,8.80
2018-08-12T20:31:53.437Z,10.20
2018-08-12T20:34:21.913Z,9.95
2018-08-12T20:36:50.569Z,7.63
2018-08-12T20:39:19.033Z,10.30
2018-08-12T20:41:47.633Z,9.03
2018-08-12T20:44:16.128Z,16.17
2018-08-12T20:46:44.627Z,20.17
2018-08-12T20:49:13.673Z,17.77
2018-08-12T20:51:42.196Z,8.37
2018-08-12T20:54:10.908Z,10.30
2018-08-12T20:56:39.421Z,7.70
2018-08-12T20:59:07.987Z,26.70
2018-08-12T21:01:36.562Z,15.47
2018-08-12T21:04:05.176Z,10.37
2018-08-12T21:07:39.334Z,8.83
2018-08-12T21:10:08.005Z,21.70
2018-08-12T21:12:36.648Z,13.97
2018-08-12T21:15:05.357Z,20.13
2018-08-12T21:17:34.156Z,36.27
2018-08-12T21:20:03.352Z,32.50
2018-08-12T21:22:32.001Z,15.47
2018-08-12T21:25:00.662Z,15.60
2018-08-12T21:27:29.211Z,15.43
2018-08-12T21:29:57.821Z,78.30
2018-08-12T21:32:26.384Z,99.80
2018-08-12T21:34:54.960Z,96.78
2018-08-12T21:37:23.560Z,59.70
2018-08-12T21:39:52.395Z,22.20
2018-08-12T21:42:21.106Z,16.60
2018-08-12T21:44:49.656Z,9.50
2018-08-12T21:47:18.516Z,7.73
2018-08-12T21:49:47.237Z,17.20
2018-08-12T21:52:15.779Z,16.33
2018-08-12T21:54:44.382Z,33.33
2018-08-12T21:57:13.281Z,19.10
2018-08-12T21:59:41.809Z,16.40
2018-08-12T22:02:10.436Z,22.03
2018-08-12T22:04:39.112Z,25.17
2018-08-12T22:07:07.742Z,40.73
2018-08-12T22:09:36.301Z,9.43
2018-08-12T22:12:04.979Z,9.13
2018-08-12T22:14:33.471Z,28.43
2018-08-12T22:17:02.059Z,7.60
2018-08-12T22:19:30.526Z,8.00
2018-08-12T22:21:59.017Z,10.53
2018-08-12T22:24:27.600Z,10.13
2018-08-12T22:26:56.164Z,9.33
2018-08-12T22:29:24.682Z,9.23
2018-08-12T22:31:53.233Z,12.90
2018-08-12T22:34:21.839Z,6.57
2018-08-12T22:36:50.400Z,9.40
2018-08-12T22:39:18.893Z,7.23
2018-08-12T22:41:47.472Z,9.73
2018-08-12T22:44:16.074Z,14.77
2018-08-12T22:46:44.628Z,19.10
2018-08-12T22:49:13.124Z,18.57
2018-08-12T22:51:41.698Z,7.53
2018-08-12T22:54:10.299Z,8.83
2018-08-12T22:56:38.857Z,7.33
2018-08-12T22:59:07.415Z,6.53
2018-08-12T23:01:36.211Z,8.10
2018-08-12T23:04:04.953Z,9.77
2018-08-12T23:06:33.501Z,10.50
2018-08-12T23:09:02.100Z,10.60
2018-08-12T23:11:30.699Z,20.10
2018-08-12T23:13:59.265Z,31.13
2018-08-12T23:16:33.470Z,25.90
2018-08-12T23:19:02.049Z,21.50
2018-08-12T23:21:30.631Z,23.30
2018-08-12T23:23:59.133Z,17.50
2018-08-12T23:26:27.674Z,15.57
2018-08-12T23:28:56.252Z,17.50
2018-08-12T23:31:24.725Z,18.47
2018-08-12T23:33:53.620Z,14.10
2018-08-12T23:36:22.126Z,12.27
2018-08-12T23:38:51.688Z,9.67
2018-08-12T23:41:20.277Z,9.07
2018-08-12T23:43:48.824Z,10.00
2018-08-12T23:46:17.406Z,8.77
2018-08-12T23:48:46.009Z,8.77
2018-08-12T23:51:14.600Z,6.13
2018-08-12T23:53:43.160Z,6.83
2018-08-12T23:56:11.780Z,5.50
2018-08-12T23:58:40.313Z,6.93
